createdAt,value
2024-03-07T00:03:13.082Z,7.40
2024-03-07T00:08:14.922Z,7.40
2024-03-07T00:13:16.951Z,7.40
2024-03-07T00:18:18.688Z,7.40
2024-03-07T00:23:20.479Z,7.30
2024-03-07T00:28:22.202Z,7.40
2024-03-07T00:33:23.999Z,7.30
2024-03-07T00:38:25.780Z,7.30
2024-03-07T00:43:27.632Z,7.30
2024-03-07T00:48:30.879Z,7.30
2024-03-07T00:53:32.718Z,7.30
2024-03-07T00:58:35.644Z,7.40
2024-03-07T01:03:38.504Z,7.40
2024-03-07T01:08:40.569Z,7.40
2024-03-07T01:13:43.113Z,7.40
2024-03-07T01:18:44.811Z,7.40
2024-03-07T01:23:46.552Z,7.30
2024-03-07T01:28:48.602Z,7.30
2024-03-07T01:33:50.614Z,7.40
2024-03-07T01:38:52.910Z,7.30
2024-03-07T01:43:54.838Z,7.30
2024-03-07T01:48:57.025Z,7.30
2024-03-07T01:53:58.880Z,7.20
2024-03-07T01:59:02.854Z,7.20
2024-03-07T02:04:05.380Z,7.20
2024-03-07T02:09:08.114Z,7.00
2024-03-07T02:14:09.911Z,7.00
2024-03-07T02:19:16.465Z,7.10
2024-03-07T02:24:18.198Z,7.10
2024-03-07T02:29:20.747Z,7.00
2024-03-07T02:34:22.494Z,7.00
2024-03-07T02:39:25.981Z,7.00
2024-03-07T02:44:27.806Z,7.00
2024-03-07T02:49:29.464Z,7.00
2024-03-07T02:54:31.314Z,7.10
2024-03-07T02:59:33.305Z,7.10
2024-03-07T03:04:35.138Z,7.00
2024-03-07T03:09:40.918Z,6.90
2024-03-07T03:14:44.486Z,6.80
2024-03-07T03:19:51.025Z,6.70
2024-03-07T03:24:56.462Z,6.60
2024-03-07T03:29:58.251Z,6.40
2024-03-07T03:34:59.985Z,6.30
2024-03-07T03:40:01.773Z,6.20
2024-03-07T03:45:07.357Z,6.20
2024-03-07T03:50:11.283Z,6.10
2024-03-07T03:55:13.872Z,6.10
2024-03-07T04:00:15.886Z,6.00
2024-03-07T04:05:20.104Z,6.00
2024-03-07T04:10:23.374Z,6.00
2024-03-07T04:15:27.926Z,5.90
2024-03-07T04:20:29.649Z,5.90
2024-03-07T04:25:32.278Z,5.80
2024-03-07T04:30:33.990Z,5.80
2024-03-07T04:35:35.680Z,5.80
2024-03-07T04:40:37.363Z,5.60
2024-03-07T04:45:39.485Z,5.80
2024-03-07T04:50:41.190Z,5.80
2024-03-07T04:55:42.842Z,5.70
2024-03-07T05:00:44.518Z,5.20
2024-03-07T05:05:46.666Z,4.70
2024-03-07T05:10:48.511Z,4.60
2024-03-07T05:15:51.796Z,4.90
2024-03-07T05:20:55.960Z,5.00
2024-03-07T05:25:58.326Z,5.00
2024-03-07T05:31:00.012Z,4.90
2024-03-07T05:36:15.588Z,5.00
2024-03-07T05:41:17.335Z,5.10
2024-03-07T05:46:19.021Z,5.20
2024-03-07T05:51:20.684Z,5.20
2024-03-07T05:56:22.354Z,5.40
2024-03-07T06:01:26.744Z,5.30
2024-03-07T06:06:28.845Z,5.40
2024-03-07T06:11:30.907Z,5.40
2024-03-07T06:16:39.896Z,5.20
2024-03-07T06:21:44.560Z,4.90
2024-03-07T06:26:47.203Z,4.80
2024-03-07T06:31:49.573Z,4.70
2024-03-07T06:36:51.281Z,5.10
2024-03-07T06:41:53.097Z,5.30
2024-03-07T06:46:54.804Z,5.40
2024-03-07T06:51:57.166Z,5.30
2024-03-07T06:56:58.867Z,5.40
2024-03-07T07:02:00.730Z,5.60
2024-03-07T07:07:02.484Z,5.70
2024-03-07T07:12:04.670Z,5.90
2024-03-07T07:17:09.400Z,6.00
2024-03-07T07:22:12.711Z,6.30
2024-03-07T07:27:14.519Z,6.50
2024-03-07T07:32:16.241Z,6.80
2024-03-07T07:37:18.011Z,7.00
2024-03-07T07:42:19.700Z,7.20
2024-03-07T07:47:21.462Z,6.90
2024-03-07T07:52:23.134Z,7.00
2024-03-07T07:57:24.929Z,7.10
2024-03-07T08:02:26.629Z,7.10
2024-03-07T08:07:28.300Z,7.00
2024-03-07T08:12:30.041Z,7.30
2024-03-07T08:17:32.533Z,7.50
2024-03-07T08:22:35.634Z,7.70
2024-03-07T08:27:38.679Z,7.80
2024-03-07T08:32:45.945Z,8.10
2024-03-07T08:37:53.961Z,8.10
2024-03-07T08:42:56.323Z,8.00
2024-03-07T08:47:59.737Z,8.30
2024-03-07T08:53:02.498Z,8.30
2024-03-07T08:58:04.420Z,8.30
2024-03-07T09:03:10.563Z,8.30
2024-03-07T09:08:13.699Z,8.30
2024-03-07T09:13:15.899Z,8.50
2024-03-07T09:18:17.660Z,8.70
2024-03-07T09:23:19.493Z,8.60
2024-03-07T09:28:21.201Z,8.70
2024-03-07T09:33:24.290Z,8.70
2024-03-07T09:38:28.836Z,8.90
2024-03-07T09:43:32.663Z,9.10
2024-03-07T09:48:35.614Z,9.10
2024-03-07T09:53:38.597Z,9.10
2024-03-07T09:58:42.265Z,9.10
2024-03-07T10:03:45.961Z,9.10
2024-03-07T10:08:48.209Z,9.40
2024-03-07T10:13:50.765Z,9.90
2024-03-07T10:18:52.568Z,10.20
2024-03-07T10:24:10.413Z,10.40
2024-03-07T10:29:12.110Z,10.70
2024-03-07T10:34:14.323Z,10.90
2024-03-07T10:39:15.992Z,10.90
2024-03-07T10:44:25.136Z,10.50
2024-03-07T10:49:29.840Z,10.30
2024-03-07T10:54:50.207Z,10.20
2024-03-07T11:00:01.890Z,10.30
2024-03-07T11:05:09.108Z,10.30
2024-03-07T11:10:12.903Z,10.40
2024-03-07T11:15:16.366Z,10.80
2024-03-07T11:20:26.189Z,11.00
2024-03-07T11:25:28.823Z,10.90
2024-03-07T11:30:30.602Z,10.70
2024-03-07T11:35:35.627Z,11.00
2024-03-07T11:40:40.340Z,11.30
2024-03-07T11:45:46.234Z,11.60
2024-03-07T11:50:48.381Z,11.90
2024-03-07T11:55:52.070Z,12.20
2024-03-07T12:00:54.201Z,13.30
2024-03-07T12:05:56.178Z,13.50
2024-03-07T12:10:59.040Z,14.50
2024-03-07T12:16:01.759Z,16.20
2024-03-07T12:21:07.784Z,17.70
2024-03-07T12:26:11.958Z,17.00
2024-03-07T12:31:17.912Z,15.60
2024-03-07T12:36:22.979Z,14.60
2024-03-07T12:41:25.180Z,14.20
2024-03-07T12:46:29.820Z,13.40
2024-03-07T12:51:31.530Z,12.90
2024-03-07T12:56:35.839Z,12.80
2024-03-07T13:01:45.588Z,12.00
2024-03-07T13:06:48.644Z,11.50
2024-03-07T13:11:50.371Z,11.40
2024-03-07T13:16:52.146Z,11.00
2024-03-07T13:21:54.746Z,10.60
2024-03-07T13:26:56.521Z,10.70
2024-03-07T13:31:58.218Z,10.50
2024-03-07T13:37:02.211Z,10.50
2024-03-07T13:42:06.057Z,10.80
2024-03-07T13:47:08.175Z,10.60
2024-03-07T13:52:19.644Z,10.40
2024-03-07T13:57:44.346Z,10.30
2024-03-07T14:03:19.858Z,10.30
2024-03-07T14:09:09.138Z,10.50
2024-03-07T14:14:39.388Z,10.70
2024-03-07T14:20:20.393Z,11.60
2024-03-07T14:25:45.122Z,12.30
2024-03-07T14:30:55.364Z,12.30
2024-03-07T14:36:15.212Z,12.20
2024-03-07T14:41:20.419Z,12.00
2024-03-07T14:46:22.507Z,11.70
2024-03-07T14:51:25.500Z,11.60
2024-03-07T14:56:27.314Z,11.50
2024-03-07T15:01:31.876Z,11.60
2024-03-07T15:06:37.141Z,11.40
2024-03-07T15:11:41.870Z,11.40
2024-03-07T15:16:43.751Z,11.20
2024-03-07T15:21:45.570Z,11.00
2024-03-07T15:26:48.565Z,10.90
2024-03-07T15:31:50.878Z,10.70
2024-03-07T15:37:02.530Z,10.50
2024-03-07T15:42:04.682Z,10.30
2024-03-07T15:47:08.797Z,10.00
2024-03-07T15:52:10.736Z,9.80
2024-03-07T15:57:12.471Z,9.70
2024-03-07T16:02:15.624Z,9.50
2024-03-07T16:07:17.524Z,9.50
2024-03-07T16:12:19.541Z,9.40
2024-03-07T16:17:21.558Z,9.40
2024-03-07T16:22:23.835Z,9.50
2024-03-07T16:27:25.510Z,9.60
2024-03-07T16:32:28.262Z,9.50
2024-03-07T16:37:30.049Z,9.50
2024-03-07T16:42:32.124Z,9.50
2024-03-07T16:47:38.654Z,9.60
2024-03-07T16:52:40.775Z,9.30
2024-03-07T16:57:44.097Z,9.40
2024-03-07T17:02:46.136Z,9.20
2024-03-07T17:07:48.529Z,9.10
2024-03-07T17:12:51.986Z,8.90
2024-03-07T17:17:54.608Z,8.90
2024-03-07T17:22:56.457Z,8.90
2024-03-07T17:27:58.588Z,8.90
2024-03-07T17:33:01.660Z,8.90
2024-03-07T17:38:03.980Z,8.90
2024-03-07T17:43:05.929Z,8.90
2024-03-07T17:48:09.323Z,8.90
2024-03-07T17:53:14.820Z,8.80
2024-03-07T17:58:20.884Z,8.80
2024-03-07T18:03:23.243Z,8.80
2024-03-07T18:08:35.646Z,8.70
2024-03-07T18:13:44.734Z,8.60
2024-03-07T18:18:51.105Z,8.40
2024-03-07T18:23:54.992Z,8.30
2024-03-07T18:28:56.905Z,8.20
2024-03-07T18:33:59.234Z,8.00
2024-03-07T18:39:02.476Z,7.70
2024-03-07T18:44:04.499Z,7.50
2024-03-07T18:49:11.052Z,7.40
2024-03-07T18:54:15.156Z,7.20
2024-03-07T18:59:16.887Z,7.20
2024-03-07T19:04:20.133Z,7.00
2024-03-07T19:09:23.364Z,6.90
2024-03-07T19:14:25.164Z,6.50
2024-03-07T19:19:29.985Z,6.20
2024-03-07T19:24:31.647Z,5.60
2024-03-07T19:29:33.532Z,5.60
2024-03-07T19:34:35.269Z,5.50
2024-03-07T19:39:37.110Z,5.10
2024-03-07T19:44:45.457Z,4.90
2024-03-07T19:49:48.074Z,4.80
2024-03-07T19:54:49.767Z,4.90
2024-03-07T19:59:52.938Z,4.70
2024-03-07T20:04:54.722Z,4.70
2024-03-07T20:09:56.552Z,4.40
2024-03-07T20:14:58.287Z,4.40
2024-03-07T20:20:00.199Z,4.00
2024-03-07T20:25:01.870Z,4.00
2024-03-07T20:30:03.921Z,4.00
2024-03-07T20:35:09.369Z,4.10
2024-03-07T20:40:14.533Z,4.10
2024-03-07T20:45:16.560Z,4.20
2024-03-07T20:50:22.199Z,4.40
2024-03-07T20:55:24.570Z,4.40
2024-03-07T21:00:28.548Z,4.50
2024-03-07T21:05:33.236Z,4.30
2024-03-07T21:10:36.168Z,4.20
2024-03-07T21:15:38.717Z,4.20
2024-03-07T21:20:43.349Z,3.80
2024-03-07T21:25:45.279Z,3.50
2024-03-07T21:30:49.401Z,3.40
2024-03-07T21:35:51.125Z,3.30
2024-03-07T21:40:53.411Z,3.20
2024-03-07T21:45:55.444Z,3.30
2024-03-07T21:50:59.122Z,3.30
2024-03-07T21:56:02.969Z,3.40
2024-03-07T22:01:09.832Z,3.40
2024-03-07T22:06:11.881Z,3.40
2024-03-07T22:11:16.544Z,3.40
2024-03-07T22:16:18.392Z,3.50
2024-03-07T22:21:20.077Z,3.60
2024-03-07T22:26:22.322Z,3.70
2024-03-07T22:31:24.013Z,3.60
2024-03-07T22:36:27.769Z,3.60
2024-03-07T22:41:29.474Z,3.80
2024-03-07T22:46:32.422Z,3.80
2024-03-07T22:51:35.252Z,3.60
2024-03-07T22:56:37.158Z,3.50
2024-03-07T23:01:39.934Z,3.20
2024-03-07T23:06:41.817Z,3.20
2024-03-07T23:11:43.777Z,3.20
2024-03-07T23:16:46.203Z,3.30
2024-03-07T23:21:47.861Z,3.20
2024-03-07T23:26:53.129Z,3.40
2024-03-07T23:31:54.999Z,3.20
2024-03-07T23:36:56.930Z,3.10
2024-03-07T23:41:58.635Z,3.00
2024-03-07T23:47:01.154Z,2.90
2024-03-07T23:52:02.818Z,2.60
2024-03-07T23:57:05.355Z,2.60
